Time;durP1;ratioP1;P1;durP2;ratioP2;P2;SDS_P1;SDS_P2;PMS_P1;PMS_P2;Temp;Humidity;BMP_temperature;BMP_pressure;BME280_temperature;BME280_humidity;BME280_pressure;Samples;Min_cycle;Max_cycle;Signal;HPM_P1;HPM_P2
2023/04/01 00:02:42;;;;;;;7.80;2.65;;;;;;;;;;6248208;28;20794;-61
2023/04/01 00:05:43;;;;;;;9.20;3.20;;;;;;;;;;6246154;28;20050;-61
2023/04/01 00:08:44;;;;;;;8.63;3.33;;;;;;;;;;6250422;28;20073;-61
2023/04/01 00:11:46;;;;;;;7.82;3.35;;;;;;;;;;6248327;28;20064;-61
2023/04/01 00:14:47;;;;;;;7.93;3.30;;;;;;;;;;6248064;28;20041;-61
2023/04/01 00:17:48;;;;;;;6.82;2.80;;;;;;;;;;6249086;28;20055;-62
2023/04/01 00:20:50;;;;;;;8.27;3.00;;;;;;;;;;6249825;28;20140;-61
2023/04/01 00:23:51;;;;;;;8.93;3.20;;;;;;;;;;6257008;28;20139;-60
2023/04/01 00:26:51;;;;;;;7.10;3.28;;;;;;;;;;6253228;28;20045;-60
2023/04/01 00:29:53;;;;;;;8.48;3.00;;;;;;;;;;6248366;28;20041;-60
2023/04/01 00:32:54;;;;;;;8.63;3.35;;;;;;;;;;6250364;28;20055;-60
2023/04/01 00:35:54;;;;;;;8.95;2.60;;;;;;;;;;6247768;28;20049;-60
2023/04/01 00:38:57;;;;;;;7.60;3.13;;;;;;;;;;6254394;28;20431;-60
2023/04/01 00:41:59;;;;;;;6.57;2.95;;;;;;;;;;6247893;28;20042;-61
2023/04/01 00:45:20;;;;;;;;;;;;;;;;;;6250682;28;20456;-61
2023/04/01 00:48:25;;;;;;;5.80;2.90;;;;;;;;;;6244471;28;20288;-60
2023/04/01 00:51:29;;;;;;;6.82;2.78;;;;;;;;;;6249422;28;20053;-60
2023/04/01 00:54:32;;;;;;;8.18;3.03;;;;;;;;;;6247816;28;20053;-61
2023/04/01 00:57:36;;;;;;;6.50;3.03;;;;;;;;;;6246280;28;20041;-61
2023/04/01 01:00:38;;;;;;;6.32;2.92;;;;;;;;;;6246394;28;20132;-61
2023/04/01 01:03:38;;;;;;;8.38;2.90;;;;;;;;;;6247547;28;20642;-62
2023/04/01 01:06:50;;;;;;;5.90;2.70;;;;;;;;;;6247726;28;20050;-61
2023/04/01 01:10:15;;;;;;;7.75;3.00;;;;;;;;;;6243835;28;20496;-60
2023/04/01 01:13:33;;;;;;;7.40;3.22;;;;;;;;;;6248087;28;20044;-60
2023/04/01 01:16:43;;;;;;;8.60;3.33;;;;;;;;;;6249274;28;20053;-61
2023/04/01 01:20:10;;;;;;;7.60;2.90;;;;;;;;;;6246809;28;20570;-61
2023/04/01 01:23:14;;;;;;;7.45;3.28;;;;;;;;;;6245990;28;20061;-61
2023/04/01 01:26:28;;;;;;;7.93;3.30;;;;;;;;;;6246285;28;20052;-61
2023/04/01 01:30:06;;;;;;;9.32;3.47;;;;;;;;;;6246667;28;20044;-62
2023/04/01 01:33:22;;;;;;;7.78;3.83;;;;;;;;;;6243098;28;20041;-60
2023/04/01 01:36:26;;;;;;;7.57;3.75;;;;;;;;;;6245498;28;20503;-61
2023/04/01 01:39:31;;;;;;;7.18;3.42;;;;;;;;;;6245025;28;20042;-61
2023/04/01 01:42:36;;;;;;;7.68;3.60;;;;;;;;;;6248142;28;20055;-61
2023/04/01 01:45:42;;;;;;;7.90;3.33;;;;;;;;;;6246516;28;20048;-61
2023/04/01 01:48:44;;;;;;;6.65;3.67;;;;;;;;;;6244585;28;20046;-61
2023/04/01 01:51:45;;;;;;;7.10;3.45;;;;;;;;;;6247727;28;20139;-61
2023/04/01 01:54:53;;;;;;;9.32;4.03;;;;;;;;;;6266958;28;20060;-61
2023/04/01 01:57:57;;;;;;;7.13;3.50;;;;;;;;;;6245661;28;20107;-61
2023/04/01 02:01:06;;;;;;;7.20;3.63;;;;;;;;;;6245862;28;20041;-61
2023/04/01 02:04:07;;;;;;;7.70;4.00;;;;;;;;;;6254435;28;20041;-62
2023/04/01 02:07:13;;;;;;;9.45;3.58;;;;;;;;;;6245566;28;20061;-61
2023/04/01 02:10:14;;;;;;;10.02;3.70;;;;;;;;;;6244008;28;20050;-61
2023/04/01 02:13:25;;;;;;;9.45;3.85;;;;;;;;;;6241624;28;20473;-61
2023/04/01 02:16:32;;;;;;;10.07;3.95;;;;;;;;;;6246933;28;20087;-61
2023/04/01 02:19:38;;;;;;;9.82;3.85;;;;;;;;;;6244578;28;20090;-61
2023/04/01 02:22:43;;;;;;;9.32;3.90;;;;;;;;;;6245132;28;20492;-60
2023/04/01 02:25:45;;;;;;;12.27;7.65;;;;;;;;;;6245018;28;20470;-61
2023/04/01 02:28:47;;;;;;;9.30;5.20;;;;;;;;;;6246937;28;20049;-60
2023/04/01 02:31:50;;;;;;;10.60;4.45;;;;;;;;;;6246371;28;20465;-61
2023/04/01 02:34:51;;;;;;;12.23;6.18;;;;;;;;;;6245151;28;20041;-61
2023/04/01 02:37:53;;;;;;;9.63;5.20;;;;;;;;;;6244745;28;20052;-61
2023/04/01 02:41:00;;;;;;;7.90;4.07;;;;;;;;;;6245437;28;20103;-61
2023/04/01 02:44:01;;;;;;;9.15;5.15;;;;;;;;;;6241927;28;21837;-61
2023/04/01 02:47:01;;;;;;;10.70;6.50;;;;;;;;;;6244036;28;20057;-61
2023/04/01 02:50:02;;;;;;;11.50;4.50;;;;;;;;;;6249498;28;20045;-61
2023/04/01 02:53:03;;;;;;;10.35;5.25;;;;;;;;;;6248509;28;20045;-61
2023/04/01 02:56:04;;;;;;;9.57;4.73;;;;;;;;;;6249244;28;20128;-61
2023/04/01 02:59:05;;;;;;;8.90;5.30;;;;;;;;;;6264116;28;20053;-61
2023/04/01 03:02:06;;;;;;;10.40;4.50;;;;;;;;;;6261159;28;20059;-61
2023/04/01 03:05:07;;;;;;;10.45;4.65;;;;;;;;;;6251112;28;20136;-62
2023/04/01 03:08:08;;;;;;;9.95;4.47;;;;;;;;;;6252697;28;20045;-61
2023/04/01 03:11:10;;;;;;;11.85;4.85;;;;;;;;;;6249254;28;20472;-61
2023/04/01 03:14:10;;;;;;;;;;;;;;;;;;6245952;28;20561;-61
2023/04/01 03:17:11;;;;;;;13.80;6.20;;;;;;;;;;6248142;28;19924;-61
2023/04/01 03:20:12;;;;;;;17.23;9.88;;;;;;;;;;6245606;28;20047;-61
2023/04/01 03:23:13;;;;;;;8.90;4.70;;;;;;;;;;6246849;28;20050;-61
2023/04/01 03:26:14;;;;;;;11.27;4.53;;;;;;;;;;6247629;28;20048;-61
2023/04/01 03:29:15;;;;;;;6.68;3.55;;;;;;;;;;6247108;28;21056;-60
2023/04/01 03:32:16;;;;;;;9.63;4.25;;;;;;;;;;6248906;28;20055;-61
2023/04/01 03:35:16;;;;;;;7.22;4.22;;;;;;;;;;6249074;28;20041;-61
2023/04/01 03:38:18;;;;;;;9.07;4.20;;;;;;;;;;6248406;28;20147;-61
2023/04/01 03:41:18;;;;;;;8.93;3.90;;;;;;;;;;6245551;28;20052;-61
2023/04/01 03:44:19;;;;;;;9.57;3.75;;;;;;;;;;6248371;28;20054;-61
2023/04/01 03:47:19;;;;;;;8.63;3.78;;;;;;;;;;6249192;28;20436;-60
2023/04/01 03:50:20;;;;;;;8.32;3.28;;;;;;;;;;6261486;28;20472;-60
2023/04/01 03:53:20;;;;;;;8.57;4.10;;;;;;;;;;6264581;28;20048;-61
2023/04/01 03:56:21;;;;;;;8.50;3.67;;;;;;;;;;6249135;28;20055;-61
2023/04/01 03:59:22;;;;;;;7.60;3.20;;;;;;;;;;6259677;28;20079;-61
2023/04/01 04:02:22;;;;;;;5.75;3.22;;;;;;;;;;6251940;28;20053;-60
2023/04/01 04:05:23;;;;;;;6.53;3.50;;;;;;;;;;6249396;28;20040;-61
2023/04/01 04:08:24;;;;;;;8.30;3.20;;;;;;;;;;6247616;28;20041;-61
2023/04/01 04:11:25;;;;;;;6.70;3.80;;;;;;;;;;6247776;28;20481;-61
2023/04/01 04:14:26;;;;;;;9.15;4.25;;;;;;;;;;6248095;28;20048;-61
2023/04/01 04:17:26;;;;;;;6.85;3.28;;;;;;;;;;6246187;28;20689;-61
2023/04/01 04:20:27;;;;;;;6.78;2.97;;;;;;;;;;6244630;28;20112;-61
2023/04/01 04:23:29;;;;;;;6.63;3.20;;;;;;;;;;6243798;28;20498;-62
2023/04/01 04:26:30;;;;;;;6.63;4.00;;;;;;;;;;6242895;28;20053;-61
2023/04/01 04:29:30;;;;;;;7.72;3.00;;;;;;;;;;6239851;28;20080;-63
2023/04/01 04:32:31;;;;;;;7.32;2.95;;;;;;;;;;6245172;28;20500;-61
2023/04/01 04:35:32;;;;;;;8.32;3.10;;;;;;;;;;6265231;28;20051;-61
2023/04/01 04:38:33;;;;;;;8.77;4.32;;;;;;;;;;6256266;28;20144;-61
2023/04/01 04:41:36;;;;;;;6.93;3.20;;;;;;;;;;6251410;28;20053;-61
2023/04/01 04:44:37;;;;;;;7.78;2.90;;;;;;;;;;6256888;28;20412;-60
2023/04/01 04:47:37;;;;;;;5.32;2.83;;;;;;;;;;6250423;28;20056;-61
2023/04/01 04:50:40;;;;;;;8.38;5.93;;;;;;;;;;6244886;28;20457;-61
2023/04/01 04:53:40;;;;;;;;;;;;;;;;;;6242625;28;20049;-60
2023/04/01 04:56:41;;;;;;;8.15;3.55;;;;;;;;;;6246856;28;19937;-62
2023/04/01 04:59:42;;;;;;;4.95;2.67;;;;;;;;;;6247269;28;20377;-61
2023/04/01 05:02:42;;;;;;;8.82;4.85;;;;;;;;;;6242147;28;20659;-61
2023/04/01 05:05:52;;;;;;;8.23;2.92;;;;;;;;;;6246912;28;20064;-61
2023/04/01 05:08:53;;;;;;;9.00;2.78;;;;;;;;;;6252482;28;20045;-61
2023/04/01 05:11:53;;;;;;;10.45;3.42;;;;;;;;;;6262728;28;20626;-61
2023/04/01 05:14:54;;;;;;;6.30;3.33;;;;;;;;;;6246152;28;20173;-61
2023/04/01 05:17:54;;;;;;;9.80;3.10;;;;;;;;;;6246043;28;20076;-61
2023/04/01 05:20:55;;;;;;;6.00;3.05;;;;;;;;;;6252686;28;20204;-60
2023/04/01 05:23:55;;;;;;;6.25;3.15;;;;;;;;;;6247462;28;20049;-61
2023/04/01 05:26:57;;;;;;;9.00;3.17;;;;;;;;;;6244919;28;20154;-61
2023/04/01 05:29:58;;;;;;;6.70;3.03;;;;;;;;;;6243688;28;20054;-61
2023/04/01 05:32:58;;;;;;;8.38;3.47;;;;;;;;;;6242728;28;20053;-61
2023/04/01 05:36:16;;;;;;;6.78;2.85;;;;;;;;;;6254584;28;20041;-61
2023/04/01 05:39:18;;;;;;;7.60;3.22;;;;;;;;;;6245097;28;20041;-60
2023/04/01 05:42:18;;;;;;;6.93;2.97;;;;;;;;;;6243473;28;20518;-60
2023/04/01 05:45:19;;;;;;;5.78;2.92;;;;;;;;;;6244098;28;20131;-61
2023/04/01 05:48:19;;;;;;;6.00;2.92;;;;;;;;;;6245825;28;20497;-60
2023/04/01 05:51:20;;;;;;;5.63;2.60;;;;;;;;;;6243440;28;20141;-61
2023/04/01 05:54:20;;;;;;;6.22;2.90;;;;;;;;;;6246012;28;20377;-60
2023/04/01 05:57:21;;;;;;;7.10;3.20;;;;;;;;;;6245513;28;20145;-61
2023/04/01 06:00:22;;;;;;;8.45;3.20;;;;;;;;;;6243434;28;20469;-61
2023/04/01 06:03:22;;;;;;;9.15;3.00;;;;;;;;;;6243741;28;20050;-61
2023/04/01 06:06:26;;;;;;;8.90;3.30;;;;;;;;;;6249151;28;20044;-61
2023/04/01 06:09:30;;;;;;;7.72;2.92;;;;;;;;;;6249025;28;20143;-61
2023/04/01 06:12:44;;;;;;;6.88;2.95;;;;;;;;;;6243063;28;20053;-62
2023/04/01 06:16:02;;;;;;;7.60;3.03;;;;;;;;;;6255570;28;20487;-61
2023/04/01 06:19:30;;;;;;;6.60;2.97;;;;;;;;;;6245337;28;20073;-61
2023/04/01 06:22:56;;;;;;;7.85;3.35;;;;;;;;;;6243325;28;20427;-62
2023/04/01 06:26:08;;;;;;;10.05;3.30;;;;;;;;;;6252823;28;20561;-61
2023/04/01 06:29:26;;;;;;;13.30;3.45;;;;;;;;;;6248223;28;20044;-62
2023/04/01 06:32:36;;;;;;;7.05;3.13;;;;;;;;;;6250423;28;20072;-60
2023/04/01 06:36:01;;;;;;;6.80;3.55;;;;;;;;;;6245962;28;20060;-61
2023/04/01 06:39:27;;;;;;;9.77;3.40;;;;;;;;;;6253243;28;20049;-61
2023/04/01 06:42:39;;;;;;;9.63;3.78;;;;;;;;;;6244218;28;20057;-60
2023/04/01 06:45:45;;;;;;;7.60;3.17;;;;;;;;;;6246513;28;20637;-61
2023/04/01 06:49:22;;;;;;;12.18;4.18;;;;;;;;;;6247836;28;20081;-60
2023/04/01 06:52:26;;;;;;;7.75;3.53;;;;;;;;;;6247886;28;20136;-60
2023/04/01 06:55:35;;;;;;;7.93;3.20;;;;;;;;;;6247605;28;20605;-61
2023/04/01 06:58:41;;;;;;;7.30;3.50;;;;;;;;;;6246473;28;20060;-61
2023/04/01 07:01:47;;;;;;;10.68;3.65;;;;;;;;;;6249044;28;20048;-61
2023/04/01 07:04:53;;;;;;;7.45;3.80;;;;;;;;;;6248991;28;20053;-61
2023/04/01 07:07:59;;;;;;;9.88;3.55;;;;;;;;;;6244525;28;20052;-60
2023/04/01 07:11:09;;;;;;;8.13;4.40;;;;;;;;;;6250042;28;20128;-61
2023/04/01 07:14:30;;;;;;;8.20;3.58;;;;;;;;;;6250857;28;20048;-61
2023/04/01 07:17:35;;;;;;;8.68;3.15;;;;;;;;;;6245187;28;20060;-61
2023/04/01 07:20:37;;;;;;;6.68;3.40;;;;;;;;;;6250866;28;20485;-61
2023/04/01 07:23:44;;;;;;;;;;;;;;;;;;6256360;28;20075;-60
2023/04/01 07:26:45;;;;;;;6.80;3.15;;;;;;;;;;6250202;28;19921;-61
2023/04/01 07:29:45;;;;;;;8.38;3.15;;;;;;;;;;6243052;28;20504;-60
2023/04/01 07:33:01;;;;;;;12.15;4.13;;;;;;;;;;6247078;28;20056;-61
2023/04/01 07:36:18;;;;;;;8.45;3.75;;;;;;;;;;6247446;28;20049;-61
2023/04/01 07:39:39;;;;;;;8.48;4.55;;;;;;;;;;6248438;28;20140;-60
2023/04/01 07:42:48;;;;;;;8.45;4.57;;;;;;;;;;6246503;28;20049;-60
2023/04/01 07:46:30;;;;;;;9.40;5.55;;;;;;;;;;6249064;28;20049;-60
2023/04/01 07:49:40;;;;;;;14.38;7.18;;;;;;;;;;6249068;28;20060;-61
2023/04/01 07:52:46;;;;;;;9.02;5.43;;;;;;;;;;6246022;28;20043;-60
2023/04/01 07:56:11;;;;;;;10.20;5.13;;;;;;;;;;6248274;28;20041;-60
2023/04/01 07:59:24;;;;;;;8.75;3.90;;;;;;;;;;6246168;28;20083;-62
2023/04/01 08:02:59;;;;;;;7.57;4.10;;;;;;;;;;6248526;28;20040;-60
2023/04/01 08:06:24;;;;;;;8.73;4.35;;;;;;;;;;6248840;28;20037;-60
2023/04/01 08:09:48;;;;;;;9.30;4.40;;;;;;;;;;6248110;28;20084;-61
2023/04/01 08:13:01;;;;;;;11.05;5.80;;;;;;;;;;6245612;28;20060;-60
2023/04/01 08:16:26;;;;;;;10.05;4.80;;;;;;;;;;6248650;28;20054;-62
2023/04/01 08:19:35;;;;;;;8.38;4.55;;;;;;;;;;6248369;28;20094;-61
2023/04/01 08:22:44;;;;;;;8.57;4.80;;;;;;;;;;6244625;28;20052;-61
2023/04/01 08:25:58;;;;;;;9.60;5.40;;;;;;;;;;6246845;28;20045;-61
2023/04/01 08:29:20;;;;;;;11.00;5.00;;;;;;;;;;6244188;28;20512;-62
2023/04/01 08:32:39;;;;;;;10.10;5.25;;;;;;;;;;6247195;28;20049;-61
2023/04/01 08:36:01;;;;;;;9.57;5.28;;;;;;;;;;6244605;28;20443;-61
2023/04/01 08:39:18;;;;;;;8.85;5.18;;;;;;;;;;6241874;28;20045;-61
2023/04/01 08:42:51;;;;;;;9.73;5.15;;;;;;;;;;6257485;28;20052;-62
2023/04/01 08:46:00;;;;;;;11.55;4.72;;;;;;;;;;6249160;28;20476;-61
2023/04/01 08:49:13;;;;;;;8.15;4.30;;;;;;;;;;6244476;28;20102;-61
2023/04/01 08:52:36;;;;;;;7.82;3.80;;;;;;;;;;6246144;28;20083;-61
2023/04/01 08:56:05;;;;;;;7.75;4.50;;;;;;;;;;6244230;28;20045;-63
2023/04/01 08:59:30;;;;;;;8.20;4.85;;;;;;;;;;6268994;28;20379;-61
2023/04/01 09:02:50;;;;;;;10.40;4.80;;;;;;;;;;6249174;28;20136;-61
2023/04/01 09:05:57;;;;;;;14.13;5.38;;;;;;;;;;6245451;28;20364;-62
2023/04/01 09:09:04;;;;;;;11.98;7.47;;;;;;;;;;6245097;28;20045;-61
2023/04/01 09:12:45;;;;;;;12.45;6.10;;;;;;;;;;6254589;28;20105;-61
2023/04/01 09:15:57;;;;;;;11.93;6.07;;;;;;;;;;6260048;28;20080;-62
2023/04/01 09:19:20;;;;;;;10.13;5.03;;;;;;;;;;6245678;28;20058;-62
2023/04/01 09:22:42;;;;;;;8.93;5.88;;;;;;;;;;6241599;28;20543;-61
2023/04/01 09:26:02;;;;;;;10.95;6.28;;;;;;;;;;6244525;28;20052;-61
2023/04/01 09:29:19;;;;;;;8.15;5.13;;;;;;;;;;6246468;28;20091;-61
2023/04/01 09:32:48;;;;;;;11.10;6.00;;;;;;;;;;6247150;28;20041;-62
2023/04/01 09:36:11;;;;;;;9.20;5.18;;;;;;;;;;6244529;28;20056;-60
2023/04/01 09:39:37;;;;;;;8.57;4.95;;;;;;;;;;6239925;28;20053;-61
2023/04/01 09:43:14;;;;;;;7.75;3.58;;;;;;;;;;6247156;28;20049;-60
2023/04/01 09:46:25;;;;;;;7.03;4.55;;;;;;;;;;6245009;28;20516;-61
2023/04/01 09:49:42;;;;;;;6.40;3.40;;;;;;;;;;6248033;28;20047;-61
2023/04/01 09:53:07;;;;;;;5.53;2.75;;;;;;;;;;6243333;28;20094;-60
2023/04/01 09:56:42;;;;;;;5.40;2.67;;;;;;;;;;6246094;28;20625;-60
2023/04/01 10:00:18;;;;;;;5.88;2.70;;;;;;;;;;6224920;28;20052;-60
2023/04/01 10:03:21;;;;;;;4.93;2.97;;;;;;;;;;6249275;28;20080;-60
2023/04/01 10:06:58;;;;;;;4.43;2.70;;;;;;;;;;6263950;28;20067;-61
2023/04/01 10:10:11;;;;;;;7.47;3.97;;;;;;;;;;6235959;28;20463;-61
2023/04/01 10:13:38;;;;;;;5.47;3.53;;;;;;;;;;6256293;28;20079;-60
2023/04/01 10:17:07;;;;;;;6.15;3.30;;;;;;;;;;6251788;28;20480;-60
2023/04/01 10:20:11;;;;;;;6.72;4.32;;;;;;;;;;6239128;28;20463;-60
2023/04/01 10:23:33;;;;;;;6.60;4.68;;;;;;;;;;6246408;28;20055;-60
2023/04/01 10:27:10;;;;;;;5.93;4.07;;;;;;;;;;6244676;28;20090;-60
2023/04/01 10:30:45;;;;;;;8.43;4.90;;;;;;;;;;6245642;28;20063;-60
2023/04/01 10:34:15;;;;;;;8.55;4.60;;;;;;;;;;6260049;28;20047;-60
2023/04/01 10:37:35;;;;;;;6.60;3.70;;;;;;;;;;6243899;28;20052;-61
2023/04/01 10:41:14;;;;;;;6.18;3.30;;;;;;;;;;6259897;28;20114;-61
2023/04/01 10:44:53;;;;;;;5.78;2.72;;;;;;;;;;6248123;28;20057;-60
2023/04/01 10:47:57;;;;;;;6.88;2.92;;;;;;;;;;6242201;28;20057;-61
2023/04/01 10:51:09;;;;;;;5.63;3.08;;;;;;;;;;6242839;28;20547;-61
2023/04/01 10:54:25;;;;;;;6.22;3.20;;;;;;;;;;6244759;28;20049;-61
2023/04/01 10:57:40;;;;;;;5.13;2.92;;;;;;;;;;6238536;28;20067;-61
2023/04/01 11:00:59;;;;;;;11.23;6.00;;;;;;;;;;6241411;28;20053;-60
2023/04/01 11:04:56;;;;;;;5.53;2.80;;;;;;;;;;6244041;28;20435;-61
2023/04/01 11:08:38;;;;;;;6.63;4.78;;;;;;;;;;6238165;28;20115;-61
2023/04/01 11:11:56;;;;;;;4.03;2.42;;;;;;;;;;6265764;28;20095;-60
2023/04/01 11:15:30;;;;;;;4.82;2.40;;;;;;;;;;6254297;28;20049;-62
2023/04/01 11:19:08;;;;;;;5.75;2.63;;;;;;;;;;6254071;28;20053;-61
2023/04/01 11:22:35;;;;;;;4.75;2.22;;;;;;;;;;6250466;28;20128;-61
2023/04/01 11:25:36;;;;;;;4.40;2.53;;;;;;;;;;6248868;28;20103;-61
2023/04/01 11:28:48;;;;;;;4.32;2.22;;;;;;;;;;6268880;28;20057;-60
2023/04/01 11:32:07;;;;;;;5.15;2.20;;;;;;;;;;6253080;28;20052;-61
2023/04/01 11:35:46;;;;;;;4.20;2.38;;;;;;;;;;6246282;28;20377;-61
2023/04/01 11:39:11;;;;;;;4.10;2.30;;;;;;;;;;6253022;28;20433;-61
2023/04/01 11:42:11;;;;;;;5.03;2.40;;;;;;;;;;6251776;28;20043;-61
2023/04/01 11:45:41;;;;;;;4.38;2.50;;;;;;;;;;6250212;28;20496;-61
2023/04/01 11:49:23;;;;;;;4.88;2.35;;;;;;;;;;6245867;28;20092;-61
2023/04/01 11:52:51;;;;;;;3.38;2.17;;;;;;;;;;6254737;28;20069;-61
2023/04/01 11:55:55;;;;;;;4.10;2.05;;;;;;;;;;6266973;28;20049;-61
2023/04/01 11:59:04;;;;;;;3.60;1.98;;;;;;;;;;6268354;28;20044;-61
2023/04/01 12:02:23;;;;;;;4.07;1.98;;;;;;;;;;6267078;28;20055;-61
2023/04/01 12:05:30;;;;;;;4.25;2.53;;;;;;;;;;6255632;28;21489;-61
2023/04/01 12:09:03;;;;;;;8.70;5.35;;;;;;;;;;6260639;28;20055;-61
2023/04/01 12:12:17;;;;;;;2.75;1.20;;;;;;;;;;6269559;28;20052;-61
2023/04/01 12:15:37;;;;;;;2.80;1.40;;;;;;;;;;6269035;28;20094;-62
2023/04/01 12:18:46;;;;;;;4.28;2.00;;;;;;;;;;6269810;28;20092;-62
2023/04/01 12:22:23;;;;;;;3.80;1.50;;;;;;;;;;6268709;28;20049;-61
2023/04/01 12:25:51;;;;;;;4.00;1.80;;;;;;;;;;6253877;28;20064;-61
2023/04/01 12:29:14;;;;;;;4.72;1.88;;;;;;;;;;6257275;28;20405;-61
2023/04/01 12:32:20;;;;;;;4.85;2.65;;;;;;;;;;6264929;28;20102;-62
2023/04/01 12:35:44;;;;;;;4.93;2.35;;;;;;;;;;6256183;28;20048;-61
2023/04/01 12:39:21;;;;;;;5.38;2.70;;;;;;;;;;6263170;28;20037;-62
2023/04/01 12:42:44;;;;;;;6.35;3.58;;;;;;;;;;6242599;28;20053;-61
2023/04/01 12:46:10;;;;;;;38.25;22.05;;;;;;;;;;6259712;28;20469;-61
2023/04/01 12:49:33;;;;;;;10.85;7.00;;;;;;;;;;6235031;28;20614;-62
2023/04/01 12:52:42;;;;;;;9.55;6.57;;;;;;;;;;6257382;28;20115;-61
2023/04/01 12:55:44;;;;;;;8.63;4.97;;;;;;;;;;6258920;28;20053;-63
2023/04/01 12:59:08;;;;;;;9.00;4.95;;;;;;;;;;6253063;28;20083;-60
2023/04/01 13:02:16;;;;;;;7.47;4.15;;;;;;;;;;6259754;28;20113;-61
2023/04/01 13:05:35;;;;;;;8.52;5.72;;;;;;;;;;6254682;28;20057;-62
2023/04/01 13:08:48;;;;;;;8.52;4.88;;;;;;;;;;6257661;28;20045;-61
2023/04/01 13:12:10;;;;;;;7.43;4.20;;;;;;;;;;6253826;28;21253;-62
2023/04/01 13:15:31;;;;;;;6.65;4.03;;;;;;;;;;6251828;28;20057;-61
2023/04/01 13:19:06;;;;;;;10.40;5.25;;;;;;;;;;6260350;28;20412;-60
2023/04/01 13:22:16;;;;;;;6.95;4.10;;;;;;;;;;6251936;28;20041;-61
2023/04/01 13:25:40;;;;;;;6.75;3.97;;;;;;;;;;6256062;28;20503;-61
2023/04/01 13:28:52;;;;;;;8.70;4.80;;;;;;;;;;6262512;28;20501;-62
2023/04/01 13:31:53;;;;;;;7.32;3.40;;;;;;;;;;6250893;28;20076;-62
2023/04/01 13:35:25;;;;;;;7.65;3.45;;;;;;;;;;6244586;28;20092;-62
2023/04/01 13:38:42;;;;;;;5.35;2.33;;;;;;;;;;6241341;28;20556;-61
2023/04/01 13:41:59;;;;;;;8.30;3.40;;;;;;;;;;6240723;28;20436;-62
2023/04/01 13:45:22;;;;;;;4.78;2.42;;;;;;;;;;6244734;28;20052;-61
2023/04/01 13:48:37;;;;;;;4.53;2.33;;;;;;;;;;6244284;28;20040;-61
2023/04/01 13:51:58;;;;;;;5.45;2.20;;;;;;;;;;6243726;28;20041;-61
2023/04/01 13:55:20;;;;;;;5.43;2.88;;;;;;;;;;6245758;28;20049;-61
2023/04/01 13:58:43;;;;;;;4.88;2.00;;;;;;;;;;6244589;28;20168;-61
2023/04/01 14:02:12;;;;;;;5.05;2.13;;;;;;;;;;6243474;28;20061;-61
2023/04/01 14:05:44;;;;;;;4.10;1.80;;;;;;;;;;6242665;28;20100;-61
2023/04/01 14:08:59;;;;;;;4.15;2.00;;;;;;;;;;6241325;28;20045;-61
2023/04/01 14:12:31;;;;;;;3.53;1.85;;;;;;;;;;6247799;28;20140;-62
2023/04/01 14:15:45;;;;;;;4.45;2.05;;;;;;;;;;6263565;28;20466;-62
2023/04/01 14:18:59;;;;;;;5.53;2.72;;;;;;;;;;6210380;28;1109542;-61
2023/04/01 14:22:16;;;;;;;6.45;2.67;;;;;;;;;;6243016;28;20051;-61
2023/04/01 14:25:45;;;;;;;4.15;2.20;;;;;;;;;;6244422;28;20462;-62
2023/04/01 14:29:11;;;;;;;5.53;2.75;;;;;;;;;;6241825;28;20063;-61
2023/04/01 14:32:31;;;;;;;6.55;3.25;;;;;;;;;;6246164;28;20209;-61
2023/04/01 14:35:41;;;;;;;7.65;3.17;;;;;;;;;;6244131;28;20065;-61
2023/04/01 14:39:21;;;;;;;7.53;3.45;;;;;;;;;;6245170;28;20049;-61
2023/04/01 14:42:27;;;;;;;6.30;3.50;;;;;;;;;;6252397;28;20484;-61
2023/04/01 14:45:49;;;;;;;5.90;3.35;;;;;;;;;;6253674;28;20045;-61
2023/04/01 14:48:52;;;;;;;5.95;3.03;;;;;;;;;;6255776;28;20677;-62
2023/04/01 14:51:53;;;;;;;4.93;2.88;;;;;;;;;;6248818;28;20053;-62
2023/04/01 14:54:56;;;;;;;5.68;2.97;;;;;;;;;;6266008;28;20654;-62
2023/04/01 14:58:08;;;;;;;6.25;3.20;;;;;;;;;;6253095;28;20106;-62
2023/04/01 15:01:34;;;;;;;4.95;3.20;;;;;;;;;;6249291;28;20048;-62
2023/04/01 15:04:44;;;;;;;6.13;3.65;;;;;;;;;;6243224;28;20096;-62
2023/04/01 15:08:01;;;;;;;6.80;3.35;;;;;;;;;;6247041;28;20468;-61
2023/04/01 15:11:14;;;;;;;8.30;3.67;;;;;;;;;;6247242;28;20061;-62
2023/04/01 15:14:44;;;;;;;8.10;3.50;;;;;;;;;;6250649;28;20037;-62
2023/04/01 15:18:07;;;;;;;5.65;3.15;;;;;;;;;;6270086;28;20094;-62
2023/04/01 15:21:34;;;;;;;5.22;3.05;;;;;;;;;;6250178;28;20041;-62
2023/04/01 15:24:53;;;;;;;8.25;3.30;;;;;;;;;;6251500;28;20052;-61
2023/04/01 15:28:31;;;;;;;5.93;3.47;;;;;;;;;;6249594;28;20439;-62
2023/04/01 15:31:48;;;;;;;6.03;3.28;;;;;;;;;;6255544;28;20153;-62
2023/04/01 15:34:52;;;;;;;8.63;3.92;;;;;;;;;;6267997;28;20565;-62
2023/04/01 15:38:06;;;;;;;9.00;4.30;;;;;;;;;;6250666;28;20049;-62
2023/04/01 15:41:11;;;;;;;8.57;4.55;;;;;;;;;;6248920;28;20042;-62
2023/04/01 15:44:30;;;;;;;9.30;4.40;;;;;;;;;;6249321;28;20048;-61
2023/04/01 15:47:38;;;;;;;10.05;4.68;;;;;;;;;;6246444;28;20146;-62
2023/04/01 15:51:08;;;;;;;8.77;4.43;;;;;;;;;;6260543;28;20065;-62
2023/04/01 15:54:24;;;;;;;8.75;4.85;;;;;;;;;;6263247;28;20041;-62
2023/04/01 15:57:32;;;;;;;8.93;4.47;;;;;;;;;;6257334;28;20488;-62
2023/04/01 16:00:53;;;;;;;8.82;5.00;;;;;;;;;;6266867;28;20044;-61
2023/04/01 16:04:14;;;;;;;9.25;4.57;;;;;;;;;;6253792;28;20812;-61
2023/04/01 16:07:21;;;;;;;9.02;4.07;;;;;;;;;;6267329;28;20106;-62
2023/04/01 16:10:27;;;;;;;6.95;3.97;;;;;;;;;;6250152;28;20050;-62
2023/04/01 16:13:42;;;;;;;6.50;3.60;;;;;;;;;;6249905;28;20045;-62
2023/04/01 16:17:01;;;;;;;5.82;3.38;;;;;;;;;;6260408;28;20095;-62
2023/04/01 16:20:18;;;;;;;5.95;3.17;;;;;;;;;;6262917;28;20048;-61
2023/04/01 16:23:26;;;;;;;7.03;3.45;;;;;;;;;;6249764;28;22112;-62
2023/04/01 16:26:36;;;;;;;8.15;3.85;;;;;;;;;;6251069;28;20057;-62
2023/04/01 16:29:55;;;;;;;6.97;3.60;;;;;;;;;;6267839;28;20138;-62
2023/04/01 16:33:15;;;;;;;9.38;4.10;;;;;;;;;;6262075;28;20053;-62
2023/04/01 16:36:48;;;;;;;9.32;4.82;;;;;;;;;;6247709;28;20049;-62
2023/04/01 16:40:10;;;;;;;8.55;4.88;;;;;;;;;;6206578;28;20053;-62
2023/04/01 16:43:11;;;;;;;7.90;3.90;;;;;;;;;;6240960;28;20056;-62
2023/04/01 16:46:12;;;;;;;8.43;4.35;;;;;;;;;;6246132;28;20052;-61
2023/04/01 16:49:12;;;;;;;8.85;5.30;;;;;;;;;;6253732;28;20385;-62
2023/04/01 16:52:16;;;;;;;9.63;4.70;;;;;;;;;;6262863;28;20045;-62
2023/04/01 16:55:19;;;;;;;7.80;4.25;;;;;;;;;;6249369;28;20049;-62
2023/04/01 16:58:34;;;;;;;9.65;4.60;;;;;;;;;;6263915;28;20114;-62
2023/04/01 17:02:01;;;;;;;8.35;4.85;;;;;;;;;;6253005;28;20057;-62
2023/04/01 17:05:12;;;;;;;7.45;4.70;;;;;;;;;;6246321;28;20135;-62
2023/04/01 17:08:44;;;;;;;8.45;4.40;;;;;;;;;;6257608;28;20446;-62
2023/04/01 17:12:10;;;;;;;9.80;5.40;;;;;;;;;;6259933;28;20496;-62
2023/04/01 17:15:30;;;;;;;10.70;5.75;;;;;;;;;;6245455;28;20507;-61
2023/04/01 17:18:42;;;;;;;10.82;4.90;;;;;;;;;;6244630;28;20408;-61
2023/04/01 17:21:43;;;;;;;10.98;4.80;;;;;;;;;;6246159;28;20056;-61
2023/04/01 17:25:04;;;;;;;8.05;4.50;;;;;;;;;;6248728;28;20538;-61
2023/04/01 17:28:43;;;;;;;7.35;4.25;;;;;;;;;;6246665;28;20044;-61
2023/04/01 17:31:51;;;;;;;8.50;4.50;;;;;;;;;;6253254;28;20179;-61
2023/04/01 17:35:10;;;;;;;10.38;5.03;;;;;;;;;;6256089;28;20068;-61
2023/04/01 17:38:17;;;;;;;11.07;6.03;;;;;;;;;;6256663;28;20143;-62
2023/04/01 17:41:40;;;;;;;11.48;6.57;;;;;;;;;;6257111;28;20080;-62
2023/04/01 17:45:01;;;;;;;26.10;12.05;;;;;;;;;;6254581;28;20043;-62
2023/04/01 17:48:37;;;;;;;32.20;15.52;;;;;;;;;;6254087;28;20071;-62
2023/04/01 17:52:03;;;;;;;27.27;13.10;;;;;;;;;;6243616;28;20522;-62
2023/04/01 17:55:23;;;;;;;25.95;14.75;;;;;;;;;;6257361;28;20140;-62
2023/04/01 17:58:47;;;;;;;22.15;10.45;;;;;;;;;;6256678;28;20041;-62
2023/04/01 18:02:00;;;;;;;25.55;12.40;;;;;;;;;;6255943;28;20158;-62
2023/04/01 18:05:11;;;;;;;21.15;10.35;;;;;;;;;;6252930;28;20558;-62
2023/04/01 18:08:13;;;;;;;29.20;12.55;;;;;;;;;;6252439;28;20306;-63
2023/04/01 18:11:26;;;;;;;28.27;13.25;;;;;;;;;;6252640;28;20496;-62
2023/04/01 18:15:11;;;;;;;31.55;15.00;;;;;;;;;;6253607;28;20046;-62
2023/04/01 18:18:37;;;;;;;32.67;16.02;;;;;;;;;;6221301;28;20653;-62
2023/04/01 18:21:46;;;;;;;24.98;11.52;;;;;;;;;;6253452;28;20048;-62
2023/04/01 18:24:58;;;;;;;23.23;11.13;;;;;;;;;;6253705;28;20187;-62
2023/04/01 18:28:29;;;;;;;21.27;11.02;;;;;;;;;;6251229;28;20033;-62
2023/04/01 18:31:39;;;;;;;22.77;11.35;;;;;;;;;;6251945;28;20083;-62
2023/04/01 18:34:46;;;;;;;17.23;9.65;;;;;;;;;;6253478;28;20049;-62
2023/04/01 18:38:00;;;;;;;19.17;10.45;;;;;;;;;;6251256;28;20055;-62
2023/04/01 18:41:26;;;;;;;18.25;9.07;;;;;;;;;;6251420;28;20638;-62
2023/04/01 18:44:29;;;;;;;17.98;8.85;;;;;;;;;;6255055;28;20060;-64
2023/04/01 18:48:03;;;;;;;15.25;8.55;;;;;;;;;;6252922;28;20053;-62
2023/04/01 18:51:20;;;;;;;15.48;8.20;;;;;;;;;;6254642;28;20476;-63
2023/04/01 18:54:26;;;;;;;20.52;9.27;;;;;;;;;;6253952;28;20987;-62
2023/04/01 18:57:40;;;;;;;17.48;9.65;;;;;;;;;;6252896;28;20053;-61
2023/04/01 19:01:01;;;;;;;14.00;7.80;;;;;;;;;;6252892;28;20328;-62
2023/04/01 19:04:30;;;;;;;16.27;9.23;;;;;;;;;;6255371;28;20053;-62
2023/04/01 19:07:37;;;;;;;17.30;9.18;;;;;;;;;;6245348;28;20060;-62
2023/04/01 19:10:45;;;;;;;14.70;8.13;;;;;;;;;;6254576;28;20049;-62
2023/04/01 19:13:51;;;;;;;16.88;9.13;;;;;;;;;;6255244;28;21335;-61
2023/04/01 19:16:59;;;;;;;15.20;8.52;;;;;;;;;;6251216;28;20045;-63